sensor_id;sensor_type;location;lat;lon;timestamp;temperature;humidity
13642;DHT22;6894;52.196;9.904;2023-04-15T00:02:00;7.10;99.90
13642;DHT22;6894;52.196;9.904;2023-04-15T00:04:29;7.10;99.90
13642;DHT22;6894;52.196;9.904;2023-04-15T00:06:57;7.00;99.90
13642;DHT22;6894;52.196;9.904;2023-04-15T00:09:24;7.00;99.90
13642;DHT22;6894;52.196;9.904;2023-04-15T00:11:53;7.00;99.90
13642;DHT22;6894;52.196;9.904;2023-04-15T00:14:19;6.90;99.90
13642;DHT22;6894;52.196;9.904;2023-04-15T00:16:46;7.00;99.90
13642;DHT22;6894;52.196;9.904;2023-04-15T00:19:19;6.90;99.90
13642;DHT22;6894;52.196;9.904;2023-04-15T00:21:46;6.90;99.90
13642;DHT22;6894;52.196;9.904;2023-04-15T00:24:13;6.90;99.90
13642;DHT22;6894;52.196;9.904;2023-04-15T00:26:39;6.90;99.90
13642;DHT22;6894;52.196;9.904;2023-04-15T00:29:09;6.90;99.90
13642;DHT22;6894;52.196;9.904;2023-04-15T00:31:36;6.90;99.90
13642;DHT22;6894;52.196;9.904;2023-04-15T00:34:02;6.90;99.90
13642;DHT22;6894;52.196;9.904;2023-04-15T00:36:29;7.00;99.90
13642;DHT22;6894;52.196;9.904;2023-04-15T00:38:58;6.90;99.90
13642;DHT22;6894;52.196;9.904;2023-04-15T00:41:25;7.00;99.90
13642;DHT22;6894;52.196;9.904;2023-04-15T00:43:51;7.00;99.90
13642;DHT22;6894;52.196;9.904;2023-04-15T00:46:21;7.00;99.90
13642;DHT22;6894;52.196;9.904;2023-04-15T00:48:49;7.00;99.90
13642;DHT22;6894;52.196;9.904;2023-04-15T00:51:16;7.00;99.90
13642;DHT22;6894;52.196;9.904;2023-04-15T00:53:43;7.00;99.90
13642;DHT22;6894;52.196;9.904;2023-04-15T00:56:10;6.90;99.90
13642;DHT22;6894;52.196;9.904;2023-04-15T00:58:37;7.00;99.90
13642;DHT22;6894;52.196;9.904;2023-04-15T01:01:04;7.00;99.90
13642;DHT22;6894;52.196;9.904;2023-04-15T01:03:32;7.00;99.90
13642;DHT22;6894;52.196;9.904;2023-04-15T01:05:59;7.00;99.90
13642;DHT22;6894;52.196;9.904;2023-04-15T01:08:26;7.00;99.90
13642;DHT22;6894;52.196;9.904;2023-04-15T01:10:54;6.90;99.90
13642;DHT22;6894;52.196;9.904;2023-04-15T01:13:22;6.90;99.90
13642;DHT22;6894;52.196;9.904;2023-04-15T01:15:49;6.90;99.90
13642;DHT22;6894;52.196;9.904;2023-04-15T01:18:17;7.00;99.90
13642;DHT22;6894;52.196;9.904;2023-04-15T01:20:45;6.90;99.90
13642;DHT22;6894;52.196;9.904;2023-04-15T01:23:12;6.90;99.90
13642;DHT22;6894;52.196;9.904;2023-04-15T01:25:41;7.00;99.90
13642;DHT22;6894;52.196;9.904;2023-04-15T01:28:09;7.00;99.90
13642;DHT22;6894;52.196;9.904;2023-04-15T01:30:36;7.00;99.90
13642;DHT22;6894;52.196;9.904;2023-04-15T01:33:03;7.00;99.90
13642;DHT22;6894;52.196;9.904;2023-04-15T01:35:29;7.00;99.90
13642;DHT22;6894;52.196;9.904;2023-04-15T01:38:02;7.00;99.90
13642;DHT22;6894;52.196;9.904;2023-04-15T01:40:30;7.00;99.90
13642;DHT22;6894;52.196;9.904;2023-04-15T01:42:59;7.00;99.90
13642;DHT22;6894;52.196;9.904;2023-04-15T01:45:25;7.10;99.90
13642;DHT22;6894;52.196;9.904;2023-04-15T01:47:52;7.00;99.90
13642;DHT22;6894;52.196;9.904;2023-04-15T01:50:19;7.10;99.90
13642;DHT22;6894;52.196;9.904;2023-04-15T01:52:46;7.10;99.90
13642;DHT22;6894;52.196;9.904;2023-04-15T01:55:13;7.10;99.90
13642;DHT22;6894;52.196;9.904;2023-04-15T01:57:40;7.20;99.90
13642;DHT22;6894;52.196;9.904;2023-04-15T02:00:09;7.20;99.90
13642;DHT22;6894;52.196;9.904;2023-04-15T02:02:36;7.20;99.90
13642;DHT22;6894;52.196;9.904;2023-04-15T02:05:03;7.30;99.90
13642;DHT22;6894;52.196;9.904;2023-04-15T02:07:31;7.20;99.90
13642;DHT22;6894;52.196;9.904;2023-04-15T02:09:57;7.20;99.90
13642;DHT22;6894;52.196;9.904;2023-04-15T02:12:24;7.20;99.90
13642;DHT22;6894;52.196;9.904;2023-04-15T02:14:51;7.20;99.90
13642;DHT22;6894;52.196;9.904;2023-04-15T02:17:20;7.20;99.90
13642;DHT22;6894;52.196;9.904;2023-04-15T02:19:46;7.30;99.90
13642;DHT22;6894;52.196;9.904;2023-04-15T02:22:14;7.20;99.90
13642;DHT22;6894;52.196;9.904;2023-04-15T02:24:43;7.20;99.90
13642;DHT22;6894;52.196;9.904;2023-04-15T02:27:12;7.20;99.90
13642;DHT22;6894;52.196;9.904;2023-04-15T02:29:40;7.30;99.90
13642;DHT22;6894;52.196;9.904;2023-04-15T02:32:07;7.20;99.90
13642;DHT22;6894;52.196;9.904;2023-04-15T02:34:35;7.30;99.90
13642;DHT22;6894;52.196;9.904;2023-04-15T02:37:03;7.30;99.90
13642;DHT22;6894;52.196;9.904;2023-04-15T02:39:30;7.30;99.90
13642;DHT22;6894;52.196;9.904;2023-04-15T02:41:57;7.30;99.90
13642;DHT22;6894;52.196;9.904;2023-04-15T02:44:25;7.30;99.90
13642;DHT22;6894;52.196;9.904;2023-04-15T02:46:51;7.30;99.90
13642;DHT22;6894;52.196;9.904;2023-04-15T02:49:19;7.40;99.90
13642;DHT22;6894;52.196;9.904;2023-04-15T02:51:47;7.40;99.90
13642;DHT22;6894;52.196;9.904;2023-04-15T02:54:15;7.40;99.90
13642;DHT22;6894;52.196;9.904;2023-04-15T02:56:41;7.40;99.90
13642;DHT22;6894;52.196;9.904;2023-04-15T02:59:08;7.40;99.90
13642;DHT22;6894;52.196;9.904;2023-04-15T03:01:35;7.40;99.90
13642;DHT22;6894;52.196;9.904;2023-04-15T03:04:02;7.40;99.90
13642;DHT22;6894;52.196;9.904;2023-04-15T03:06:28;7.50;99.90
13642;DHT22;6894;52.196;9.904;2023-04-15T03:08:56;7.40;99.90
13642;DHT22;6894;52.196;9.904;2023-04-15T03:11:24;7.50;99.90
13642;DHT22;6894;52.196;9.904;2023-04-15T03:13:52;7.50;99.90
13642;DHT22;6894;52.196;9.904;2023-04-15T03:16:18;7.40;99.90
13642;DHT22;6894;52.196;9.904;2023-04-15T03:18:45;7.40;99.90
13642;DHT22;6894;52.196;9.904;2023-04-15T03:21:12;7.40;99.90
13642;DHT22;6894;52.196;9.904;2023-04-15T03:23:38;7.50;99.90
13642;DHT22;6894;52.196;9.904;2023-04-15T03:26:07;7.50;99.90
13642;DHT22;6894;52.196;9.904;2023-04-15T03:28:33;7.50;99.90
13642;DHT22;6894;52.196;9.904;2023-04-15T03:31:00;7.40;99.90
13642;DHT22;6894;52.196;9.904;2023-04-15T03:33:27;7.50;99.90
13642;DHT22;6894;52.196;9.904;2023-04-15T03:35:54;7.50;99.90
13642;DHT22;6894;52.196;9.904;2023-04-15T03:38:20;7.50;99.90
13642;DHT22;6894;52.196;9.904;2023-04-15T03:40:47;7.50;99.90
13642;DHT22;6894;52.196;9.904;2023-04-15T03:43:15;7.40;99.90
13642;DHT22;6894;52.196;9.904;2023-04-15T03:45:42;7.40;99.90
13642;DHT22;6894;52.196;9.904;2023-04-15T03:48:09;7.40;99.90
13642;DHT22;6894;52.196;9.904;2023-04-15T03:50:36;7.30;99.90
13642;DHT22;6894;52.196;9.904;2023-04-15T03:53:02;7.20;99.90
13642;DHT22;6894;52.196;9.904;2023-04-15T03:55:29;7.20;99.90
13642;DHT22;6894;52.196;9.904;2023-04-15T03:57:56;7.30;99.90
13642;DHT22;6894;52.196;9.904;2023-04-15T04:00:24;7.30;99.90
13642;DHT22;6894;52.196;9.904;2023-04-15T04:02:51;7.20;99.90
13642;DHT22;6894;52.196;9.904;2023-04-15T04:05:17;6.90;99.90
13642;DHT22;6894;52.196;9.904;2023-04-15T04:07:44;7.30;99.90
13642;DHT22;6894;52.196;9.904;2023-04-15T04:10:11;7.20;99.90
13642;DHT22;6894;52.196;9.904;2023-04-15T04:12:38;7.20;99.90
13642;DHT22;6894;52.196;9.904;2023-04-15T04:15:06;7.20;99.90
13642;DHT22;6894;52.196;9.904;2023-04-15T04:17:34;7.20;99.90
13642;DHT22;6894;52.196;9.904;2023-04-15T04:20:01;7.20;99.90
13642;DHT22;6894;52.196;9.904;2023-04-15T04:22:28;7.10;99.90
13642;DHT22;6894;52.196;9.904;2023-04-15T04:24:54;7.10;99.90
13642;DHT22;6894;52.196;9.904;2023-04-15T04:27:21;7.10;99.90
13642;DHT22;6894;52.196;9.904;2023-04-15T04:29:48;7.10;99.90
13642;DHT22;6894;52.196;9.904;2023-04-15T04:32:15;7.10;99.90
13642;DHT22;6894;52.196;9.904;2023-04-15T04:34:43;7.10;99.90
13642;DHT22;6894;52.196;9.904;2023-04-15T04:37:10;7.10;99.90
13642;DHT22;6894;52.196;9.904;2023-04-15T04:39:36;7.10;99.90
13642;DHT22;6894;52.196;9.904;2023-04-15T04:42:03;7.10;99.90
13642;DHT22;6894;52.196;9.904;2023-04-15T04:44:30;7.00;99.90
13642;DHT22;6894;52.196;9.904;2023-04-15T04:46:57;7.10;99.90
13642;DHT22;6894;52.196;9.904;2023-04-15T04:49:23;7.10;99.90
13642;DHT22;6894;52.196;9.904;2023-04-15T04:51:52;7.00;99.90
13642;DHT22;6894;52.196;9.904;2023-04-15T04:54:18;7.00;99.90
13642;DHT22;6894;52.196;9.904;2023-04-15T04:56:45;7.10;99.90
13642;DHT22;6894;52.196;9.904;2023-04-15T04:59:12;7.00;99.90
13642;DHT22;6894;52.196;9.904;2023-04-15T05:01:39;7.00;99.90
13642;DHT22;6894;52.196;9.904;2023-04-15T05:04:06;7.00;99.90
13642;DHT22;6894;52.196;9.904;2023-04-15T05:06:33;7.00;99.90
13642;DHT22;6894;52.196;9.904;2023-04-15T05:09:02;7.00;99.90
13642;DHT22;6894;52.196;9.904;2023-04-15T05:11:29;7.00;99.90
13642;DHT22;6894;52.196;9.904;2023-04-15T05:13:56;7.00;99.90
13642;DHT22;6894;52.196;9.904;2023-04-15T05:16:24;7.00;99.90
13642;DHT22;6894;52.196;9.904;2023-04-15T05:18:51;7.10;99.90
13642;DHT22;6894;52.196;9.904;2023-04-15T05:21:18;7.10;99.90
13642;DHT22;6894;52.196;9.904;2023-04-15T05:23:45;7.00;99.90
13642;DHT22;6894;52.196;9.904;2023-04-15T05:26:13;7.00;99.90
13642;DHT22;6894;52.196;9.904;2023-04-15T05:28:40;7.00;99.90
13642;DHT22;6894;52.196;9.904;2023-04-15T05:31:07;7.00;99.90
13642;DHT22;6894;52.196;9.904;2023-04-15T05:33:33;7.00;99.90
13642;DHT22;6894;52.196;9.904;2023-04-15T05:36:00;7.00;99.90
13642;DHT22;6894;52.196;9.904;2023-04-15T05:38:27;7.00;99.90
13642;DHT22;6894;52.196;9.904;2023-04-15T05:40:54;7.10;99.90
13642;DHT22;6894;52.196;9.904;2023-04-15T05:43:22;7.00;99.90
13642;DHT22;6894;52.196;9.904;2023-04-15T05:45:49;7.00;99.90
13642;DHT22;6894;52.196;9.904;2023-04-15T05:48:15;7.00;99.90
13642;DHT22;6894;52.196;9.904;2023-04-15T05:50:42;7.10;99.90
13642;DHT22;6894;52.196;9.904;2023-04-15T05:53:09;7.00;99.90
13642;DHT22;6894;52.196;9.904;2023-04-15T05:55:36;7.00;99.90
13642;DHT22;6894;52.196;9.904;2023-04-15T05:58:02;7.00;99.90
13642;DHT22;6894;52.196;9.904;2023-04-15T06:00:31;7.20;99.90
13642;DHT22;6894;52.196;9.904;2023-04-15T06:03:00;7.10;99.90
13642;DHT22;6894;52.196;9.904;2023-04-15T06:05:27;7.10;99.90
13642;DHT22;6894;52.196;9.904;2023-04-15T06:07:54;7.10;99.90
13642;DHT22;6894;52.196;9.904;2023-04-15T06:10:21;7.20;99.90
13642;DHT22;6894;52.196;9.904;2023-04-15T06:12:47;7.10;99.90
13642;DHT22;6894;52.196;9.904;2023-04-15T06:15:14;7.10;99.90
13642;DHT22;6894;52.196;9.904;2023-04-15T06:17:42;7.20;99.90
13642;DHT22;6894;52.196;9.904;2023-04-15T06:20:10;7.20;99.90
13642;DHT22;6894;52.196;9.904;2023-04-15T06:22:37;7.20;99.90
13642;DHT22;6894;52.196;9.904;2023-04-15T06:25:05;7.20;99.90
13642;DHT22;6894;52.196;9.904;2023-04-15T06:27:32;7.20;99.90
13642;DHT22;6894;52.196;9.904;2023-04-15T06:29:59;7.20;99.90
13642;DHT22;6894;52.196;9.904;2023-04-15T06:32:26;7.20;99.90
13642;DHT22;6894;52.196;9.904;2023-04-15T06:34:54;7.20;99.90
13642;DHT22;6894;52.196;9.904;2023-04-15T06:37:21;7.20;99.90
13642;DHT22;6894;52.196;9.904;2023-04-15T06:39:48;7.20;99.90
13642;DHT22;6894;52.196;9.904;2023-04-15T06:42:15;7.30;99.90
13642;DHT22;6894;52.196;9.904;2023-04-15T06:44:41;7.30;99.90
13642;DHT22;6894;52.196;9.904;2023-04-15T06:47:08;7.30;99.90
13642;DHT22;6894;52.196;9.904;2023-04-15T06:49:37;7.30;99.90
13642;DHT22;6894;52.196;9.904;2023-04-15T06:52:06;7.20;99.90
13642;DHT22;6894;52.196;9.904;2023-04-15T06:54:33;7.20;99.90
13642;DHT22;6894;52.196;9.904;2023-04-15T06:57:00;7.30;99.90
13642;DHT22;6894;52.196;9.904;2023-04-15T06:59:27;7.30;99.90
13642;DHT22;6894;52.196;9.904;2023-04-15T07:01:53;7.30;99.90
13642;DHT22;6894;52.196;9.904;2023-04-15T07:04:20;7.30;99.90
13642;DHT22;6894;52.196;9.904;2023-04-15T07:06:47;7.30;99.90
13642;DHT22;6894;52.196;9.904;2023-04-15T07:09:15;7.30;99.90
13642;DHT22;6894;52.196;9.904;2023-04-15T07:11:42;7.30;99.90
13642;DHT22;6894;52.196;9.904;2023-04-15T07:14:09;7.30;99.90
13642;DHT22;6894;52.196;9.904;2023-04-15T07:16:36;7.40;99.90
13642;DHT22;6894;52.196;9.904;2023-04-15T07:19:02;7.30;99.90
13642;DHT22;6894;52.196;9.904;2023-04-15T07:21:29;7.30;99.90
13642;DHT22;6894;52.196;9.904;2023-04-15T07:23:56;7.30;99.90
13642;DHT22;6894;52.196;9.904;2023-04-15T07:26:25;7.30;99.90
13642;DHT22;6894;52.196;9.904;2023-04-15T07:28:52;7.40;99.90
13642;DHT22;6894;52.196;9.904;2023-04-15T07:31:18;7.40;99.90
13642;DHT22;6894;52.196;9.904;2023-04-15T07:33:45;7.50;99.90
13642;DHT22;6894;52.196;9.904;2023-04-15T07:36:12;7.40;99.90
13642;DHT22;6894;52.196;9.904;2023-04-15T07:38:40;7.50;99.90
13642;DHT22;6894;52.196;9.904;2023-04-15T07:41:07;7.40;99.90
13642;DHT22;6894;52.196;9.904;2023-04-15T07:43:36;7.50;99.90
13642;DHT22;6894;52.196;9.904;2023-04-15T07:46:03;7.50;99.90
13642;DHT22;6894;52.196;9.904;2023-04-15T07:48:31;7.50;99.90
13642;DHT22;6894;52.196;9.904;2023-04-15T07:50:58;7.50;99.90
13642;DHT22;6894;52.196;9.904;2023-04-15T07:53:27;7.60;99.90
13642;DHT22;6894;52.196;9.904;2023-04-15T07:55:53;7.60;99.90
13642;DHT22;6894;52.196;9.904;2023-04-15T07:58:20;7.50;99.90
13642;DHT22;6894;52.196;9.904;2023-04-15T08:00:48;7.60;99.90
13642;DHT22;6894;52.196;9.904;2023-04-15T08:03:15;7.50;99.90
13642;DHT22;6894;52.196;9.904;2023-04-15T08:05:42;7.50;99.90
13642;DHT22;6894;52.196;9.904;2023-04-15T08:08:09;7.50;99.90
13642;DHT22;6894;52.196;9.904;2023-04-15T08:10:36;7.60;99.90
13642;DHT22;6894;52.196;9.904;2023-04-15T08:13:03;7.50;99.90
13642;DHT22;6894;52.196;9.904;2023-04-15T08:15:30;7.60;99.90
13642;DHT22;6894;52.196;9.904;2023-04-15T08:17:59;7.50;99.90
13642;DHT22;6894;52.196;9.904;2023-04-15T08:20:26;7.50;99.90
13642;DHT22;6894;52.196;9.904;2023-04-15T08:22:53;7.60;99.90
13642;DHT22;6894;52.196;9.904;2023-04-15T08:25:19;7.60;99.90
13642;DHT22;6894;52.196;9.904;2023-04-15T08:27:46;7.60;99.90
13642;DHT22;6894;52.196;9.904;2023-04-15T08:30:13;7.60;99.90
13642;DHT22;6894;52.196;9.904;2023-04-15T08:32:41;7.70;99.90
13642;DHT22;6894;52.196;9.904;2023-04-15T08:35:09;7.60;99.90
13642;DHT22;6894;52.196;9.904;2023-04-15T08:37:36;7.60;99.90
13642;DHT22;6894;52.196;9.904;2023-04-15T08:40:04;7.70;99.90
13642;DHT22;6894;52.196;9.904;2023-04-15T08:42:35;7.80;99.90
13642;DHT22;6894;52.196;9.904;2023-04-15T08:45:04;7.80;99.90
13642;DHT22;6894;52.196;9.904;2023-04-15T08:47:31;7.80;99.90
13642;DHT22;6894;52.196;9.904;2023-04-15T08:49:58;7.70;99.90
13642;DHT22;6894;52.196;9.904;2023-04-15T08:52:30;7.70;99.90
13642;DHT22;6894;52.196;9.904;2023-04-15T08:54:57;7.80;99.90
13642;DHT22;6894;52.196;9.904;2023-04-15T08:57:26;7.70;99.90
13642;DHT22;6894;52.196;9.904;2023-04-15T08:59:54;7.70;99.90
13642;DHT22;6894;52.196;9.904;2023-04-15T09:02:22;7.80;99.90
13642;DHT22;6894;52.196;9.904;2023-04-15T09:04:50;7.80;99.90
13642;DHT22;6894;52.196;9.904;2023-04-15T09:07:16;7.80;99.90
13642;DHT22;6894;52.196;9.904;2023-04-15T09:09:44;7.80;99.90
13642;DHT22;6894;52.196;9.904;2023-04-15T09:12:11;7.80;99.90
13642;DHT22;6894;52.196;9.904;2023-04-15T09:14:39;7.80;99.90
13642;DHT22;6894;52.196;9.904;2023-04-15T09:17:09;7.90;99.90
13642;DHT22;6894;52.196;9.904;2023-04-15T09:19:36;7.90;99.90
13642;DHT22;6894;52.196;9.904;2023-04-15T09:22:03;7.80;99.90
13642;DHT22;6894;52.196;9.904;2023-04-15T09:24:35;7.90;99.90
13642;DHT22;6894;52.196;9.904;2023-04-15T09:27:04;7.90;99.90
13642;DHT22;6894;52.196;9.904;2023-04-15T09:29:32;7.90;99.90
13642;DHT22;6894;52.196;9.904;2023-04-15T09:32:09;7.90;99.90
13642;DHT22;6894;52.196;9.904;2023-04-15T09:34:36;7.90;99.90
13642;DHT22;6894;52.196;9.904;2023-04-15T09:37:03;8.00;99.90
13642;DHT22;6894;52.196;9.904;2023-04-15T09:39:45;8.00;99.90
13642;DHT22;6894;52.196;9.904;2023-04-15T09:42:14;8.10;99.90
13642;DHT22;6894;52.196;9.904;2023-04-15T09:44:42;8.10;99.90
13642;DHT22;6894;52.196;9.904;2023-04-15T09:47:09;8.10;99.90
13642;DHT22;6894;52.196;9.904;2023-04-15T09:49:55;8.10;99.90
13642;DHT22;6894;52.196;9.904;2023-04-15T09:52:22;8.10;99.90
13642;DHT22;6894;52.196;9.904;2023-04-15T09:54:52;8.10;99.90
13642;DHT22;6894;52.196;9.904;2023-04-15T09:57:20;8.20;99.90
13642;DHT22;6894;52.196;9.904;2023-04-15T09:59:48;8.30;99.90
13642;DHT22;6894;52.196;9.904;2023-04-15T10:02:15;8.30;99.90
13642;DHT22;6894;52.196;9.904;2023-04-15T10:04:44;8.30;99.90
13642;DHT22;6894;52.196;9.904;2023-04-15T10:07:14;8.20;99.90
13642;DHT22;6894;52.196;9.904;2023-04-15T10:09:44;8.20;99.90
13642;DHT22;6894;52.196;9.904;2023-04-15T10:12:11;8.20;99.90
13642;DHT22;6894;52.196;9.904;2023-04-15T10:14:41;8.30;99.90
13642;DHT22;6894;52.196;9.904;2023-04-15T10:17:10;8.30;99.90
13642;DHT22;6894;52.196;9.904;2023-04-15T10:19:38;8.30;99.90
13642;DHT22;6894;52.196;9.904;2023-04-15T10:22:05;8.30;99.90
13642;DHT22;6894;52.196;9.904;2023-04-15T10:24:33;8.30;99.90
13642;DHT22;6894;52.196;9.904;2023-04-15T10:27:02;8.30;99.90
13642;DHT22;6894;52.196;9.904;2023-04-15T10:29:30;8.40;99.90
13642;DHT22;6894;52.196;9.904;2023-04-15T10:31:58;8.40;99.90
13642;DHT22;6894;52.196;9.904;2023-04-15T10:34:26;8.50;99.90
13642;DHT22;6894;52.196;9.904;2023-04-15T10:36:54;8.50;99.90
13642;DHT22;6894;52.196;9.904;2023-04-15T10:39:42;8.50;99.90
13642;DHT22;6894;52.196;9.904;2023-04-15T10:42:10;8.60;99.90
13642;DHT22;6894;52.196;9.904;2023-04-15T10:44:37;8.60;99.90
13642;DHT22;6894;52.196;9.904;2023-04-15T10:47:14;8.50;99.90
13642;DHT22;6894;52.196;9.904;2023-04-15T10:49:45;8.60;99.90
13642;DHT22;6894;52.196;9.904;2023-04-15T10:52:14;8.60;99.90
13642;DHT22;6894;52.196;9.904;2023-04-15T10:54:41;8.60;99.90
13642;DHT22;6894;52.196;9.904;2023-04-15T10:57:12;8.70;99.90
13642;DHT22;6894;52.196;9.904;2023-04-15T11:00:01;8.70;99.90
13642;DHT22;6894;52.196;9.904;2023-04-15T11:02:41;8.70;99.90
13642;DHT22;6894;52.196;9.904;2023-04-15T11:05:08;8.80;99.90
13642;DHT22;6894;52.196;9.904;2023-04-15T11:07:36;8.80;99.90
13642;DHT22;6894;52.196;9.904;2023-04-15T11:10:05;8.80;99.90
13642;DHT22;6894;52.196;9.904;2023-04-15T11:12:51;8.80;99.90
13642;DHT22;6894;52.196;9.904;2023-04-15T11:15:27;8.80;99.90
13642;DHT22;6894;52.196;9.904;2023-04-15T11:17:56;8.90;99.90
13642;DHT22;6894;52.196;9.904;2023-04-15T11:20:23;9.10;99.90
13642;DHT22;6894;52.196;9.904;2023-04-15T11:22:51;8.90;99.90
13642;DHT22;6894;52.196;9.904;2023-04-15T11:25:22;9.00;99.90
13642;DHT22;6894;52.196;9.904;2023-04-15T11:27:49;8.90;99.90
13642;DHT22;6894;52.196;9.904;2023-04-15T11:30:18;8.90;99.90
13642;DHT22;6894;52.196;9.904;2023-04-15T11:32:46;8.90;99.90
13642;DHT22;6894;52.196;9.904;2023-04-15T11:35:15;8.90;99.90
13642;DHT22;6894;52.196;9.904;2023-04-15T11:37:42;9.00;99.90
13642;DHT22;6894;52.196;9.904;2023-04-15T11:40:09;9.00;99.90
13642;DHT22;6894;52.196;9.904;2023-04-15T11:42:36;9.00;99.90
13642;DHT22;6894;52.196;9.904;2023-04-15T11:45:06;9.00;99.90
13642;DHT22;6894;52.196;9.904;2023-04-15T11:47:34;9.10;99.90
13642;DHT22;6894;52.196;9.904;2023-04-15T11:50:17;9.10;99.90
13642;DHT22;6894;52.196;9.904;2023-04-15T11:52:54;9.20;99.90
13642;DHT22;6894;52.196;9.904;2023-04-15T11:55:22;9.20;99.90
13642;DHT22;6894;52.196;9.904;2023-04-15T11:57:49;9.20;99.90
13642;DHT22;6894;52.196;9.904;2023-04-15T12:00:16;9.10;99.90
13642;DHT22;6894;52.196;9.904;2023-04-15T12:02:45;9.20;99.90
13642;DHT22;6894;52.196;9.904;2023-04-15T12:05:12;9.20;99.90
13642;DHT22;6894;52.196;9.904;2023-04-15T12:07:58;9.30;99.90
13642;DHT22;6894;52.196;9.904;2023-04-15T12:10:25;9.20;99.90
13642;DHT22;6894;52.196;9.904;2023-04-15T12:12:52;9.30;99.90
13642;DHT22;6894;52.196;9.904;2023-04-15T12:15:21;9.30;99.90
13642;DHT22;6894;52.196;9.904;2023-04-15T12:17:48;9.40;99.90
13642;DHT22;6894;52.196;9.904;2023-04-15T12:20:23;9.30;99.90
13642;DHT22;6894;52.196;9.904;2023-04-15T12:22:50;9.30;99.90
13642;DHT22;6894;52.196;9.904;2023-04-15T12:25:19;9.40;99.90
13642;DHT22;6894;52.196;9.904;2023-04-15T12:27:58;9.40;99.90
13642;DHT22;6894;52.196;9.904;2023-04-15T12:30:25;9.40;99.90
13642;DHT22;6894;52.196;9.904;2023-04-15T12:32:51;9.40;99.90
13642;DHT22;6894;52.196;9.904;2023-04-15T12:35:18;9.40;99.90
13642;DHT22;6894;52.196;9.904;2023-04-15T12:37:46;9.40;99.90
13642;DHT22;6894;52.196;9.904;2023-04-15T12:40:12;9.40;99.90
13642;DHT22;6894;52.196;9.904;2023-04-15T12:42:41;9.50;99.90
13642;DHT22;6894;52.196;9.904;2023-04-15T12:45:08;9.50;99.90
13642;DHT22;6894;52.196;9.904;2023-04-15T12:47:35;9.50;99.90
13642;DHT22;6894;52.196;9.904;2023-04-15T12:50:02;9.50;99.90
13642;DHT22;6894;52.196;9.904;2023-04-15T12:52:29;9.50;99.90
13642;DHT22;6894;52.196;9.904;2023-04-15T12:54:55;9.50;99.90
13642;DHT22;6894;52.196;9.904;2023-04-15T12:57:22;9.50;99.90
13642;DHT22;6894;52.196;9.904;2023-04-15T12:59:50;9.50;99.90
13642;DHT22;6894;52.196;9.904;2023-04-15T13:02:17;9.50;99.90
13642;DHT22;6894;52.196;9.904;2023-04-15T13:04:45;9.50;99.90
13642;DHT22;6894;52.196;9.904;2023-04-15T13:07:12;9.60;99.90
13642;DHT22;6894;52.196;9.904;2023-04-15T13:09:40;9.60;99.90
13642;DHT22;6894;52.196;9.904;2023-04-15T13:12:06;9.60;99.90
13642;DHT22;6894;52.196;9.904;2023-04-15T13:14:33;9.70;99.90
13642;DHT22;6894;52.196;9.904;2023-04-15T13:17:02;9.60;99.90
13642;DHT22;6894;52.196;9.904;2023-04-15T13:19:33;9.70;99.90
13642;DHT22;6894;52.196;9.904;2023-04-15T13:22:01;9.80;99.90
13642;DHT22;6894;52.196;9.904;2023-04-15T13:24:27;9.90;99.90
13642;DHT22;6894;52.196;9.904;2023-04-15T13:26:54;9.90;99.90
13642;DHT22;6894;52.196;9.904;2023-04-15T13:29:23;9.90;99.90
13642;DHT22;6894;52.196;9.904;2023-04-15T13:31:50;9.80;99.90
13642;DHT22;6894;52.196;9.904;2023-04-15T13:34:18;9.80;99.90
13642;DHT22;6894;52.196;9.904;2023-04-15T13:36:45;9.90;99.90
13642;DHT22;6894;52.196;9.904;2023-04-15T13:39:12;9.90;99.90
13642;DHT22;6894;52.196;9.904;2023-04-15T13:41:39;10.00;99.90
13642;DHT22;6894;52.196;9.904;2023-04-15T13:44:06;9.90;99.90
13642;DHT22;6894;52.196;9.904;2023-04-15T13:46:32;10.00;99.90
13642;DHT22;6894;52.196;9.904;2023-04-15T13:48:59;10.10;99.90
13642;DHT22;6894;52.196;9.904;2023-04-15T13:51:27;10.10;99.90
13642;DHT22;6894;52.196;9.904;2023-04-15T13:53:54;10.10;99.90
13642;DHT22;6894;52.196;9.904;2023-04-15T13:56:22;10.10;99.90
13642;DHT22;6894;52.196;9.904;2023-04-15T13:58:50;10.20;99.90
13642;DHT22;6894;52.196;9.904;2023-04-15T14:01:19;10.40;99.90
13642;DHT22;6894;52.196;9.904;2023-04-15T14:03:46;10.40;99.90
13642;DHT22;6894;52.196;9.904;2023-04-15T14:06:12;10.50;99.90
13642;DHT22;6894;52.196;9.904;2023-04-15T14:08:40;10.50;99.90
13642;DHT22;6894;52.196;9.904;2023-04-15T14:11:07;10.60;99.90
13642;DHT22;6894;52.196;9.904;2023-04-15T14:13:34;10.60;99.90
13642;DHT22;6894;52.196;9.904;2023-04-15T14:16:01;10.70;99.90
13642;DHT22;6894;52.196;9.904;2023-04-15T14:18:28;10.70;99.90
13642;DHT22;6894;52.196;9.904;2023-04-15T14:20:56;10.80;99.90
13642;DHT22;6894;52.196;9.904;2023-04-15T14:23:23;10.80;99.90
13642;DHT22;6894;52.196;9.904;2023-04-15T14:25:51;10.90;99.90
13642;DHT22;6894;52.196;9.904;2023-04-15T14:28:18;10.90;99.90
13642;DHT22;6894;52.196;9.904;2023-04-15T14:30:45;11.10;99.90
13642;DHT22;6894;52.196;9.904;2023-04-15T14:33:12;11.20;99.90
13642;DHT22;6894;52.196;9.904;2023-04-15T14:35:39;11.40;99.90
13642;DHT22;6894;52.196;9.904;2023-04-15T14:38:06;11.50;99.90
13642;DHT22;6894;52.196;9.904;2023-04-15T14:40:35;11.60;99.90
13642;DHT22;6894;52.196;9.904;2023-04-15T14:43:03;11.70;99.90
13642;DHT22;6894;52.196;9.904;2023-04-15T14:45:30;11.90;99.90
13642;DHT22;6894;52.196;9.904;2023-04-15T14:47:57;11.90;99.90
13642;DHT22;6894;52.196;9.904;2023-04-15T14:50:24;12.00;99.90
13642;DHT22;6894;52.196;9.904;2023-04-15T14:52:51;12.00;99.90
13642;DHT22;6894;52.196;9.904;2023-04-15T14:55:18;11.90;99.90
13642;DHT22;6894;52.196;9.904;2023-04-15T14:57:44;11.90;99.90
13642;DHT22;6894;52.196;9.904;2023-04-15T15:00:13;12.10;99.90
13642;DHT22;6894;52.196;9.904;2023-04-15T15:02:40;12.10;99.90
13642;DHT22;6894;52.196;9.904;2023-04-15T15:05:08;12.10;99.90
13642;DHT22;6894;52.196;9.904;2023-04-15T15:07:36;12.20;99.90
13642;DHT22;6894;52.196;9.904;2023-04-15T15:10:04;12.30;99.90
13642;DHT22;6894;52.196;9.904;2023-04-15T15:12:32;12.40;99.90
13642;DHT22;6894;52.196;9.904;2023-04-15T15:14:58;12.40;99.90
13642;DHT22;6894;52.196;9.904;2023-04-15T15:17:27;12.40;99.90
13642;DHT22;6894;52.196;9.904;2023-04-15T15:19:53;12.50;99.90
13642;DHT22;6894;52.196;9.904;2023-04-15T15:22:20;12.50;99.90
13642;DHT22;6894;52.196;9.904;2023-04-15T15:24:47;12.60;99.90
13642;DHT22;6894;52.196;9.904;2023-04-15T15:27:14;12.60;99.90
13642;DHT22;6894;52.196;9.904;2023-04-15T15:29:40;12.60;99.90
13642;DHT22;6894;52.196;9.904;2023-04-15T15:32:07;12.70;99.90
13642;DHT22;6894;52.196;9.904;2023-04-15T15:34:35;12.80;99.90
13642;DHT22;6894;52.196;9.904;2023-04-15T15:37:02;12.70;99.90
13642;DHT22;6894;52.196;9.904;2023-04-15T15:39:29;12.70;99.90
13642;DHT22;6894;52.196;9.904;2023-04-15T15:41:55;12.70;99.90
13642;DHT22;6894;52.196;9.904;2023-04-15T15:44:22;12.70;99.90
13642;DHT22;6894;52.196;9.904;2023-04-15T15:46:49;12.70;99.90
13642;DHT22;6894;52.196;9.904;2023-04-15T15:49:16;12.70;99.90
13642;DHT22;6894;52.196;9.904;2023-04-15T15:51:45;12.70;99.90
13642;DHT22;6894;52.196;9.904;2023-04-15T15:54:14;12.70;99.90
13642;DHT22;6894;52.196;9.904;2023-04-15T15:56:41;12.70;99.90
13642;DHT22;6894;52.196;9.904;2023-04-15T15:59:07;12.70;99.90
13642;DHT22;6894;52.196;9.904;2023-04-15T16:01:34;12.60;99.90
13642;DHT22;6894;52.196;9.904;2023-04-15T16:04:01;12.70;99.90